Time;durP1;ratioP1;P1;durP2;ratioP2;P2;SDS_P1;SDS_P2;PMS_P1;PMS_P2;Temp;Humidity;BMP_temperature;BMP_pressure;BME280_temperature;BME280_humidity;BME280_pressure;Samples;Min_cycle;Max_cycle;Signal;HPM_P1;HPM_P2
2024/01/22 00:00:06;;;;;;;5.80;3.25;;;;;;;-146.25;100.00;52587.19;2023650;29;36356;-63
2024/01/22 00:01:13;;;;;;;4.25;2.78;;;;;;;-146.25;100.00;52587.19;2024072;29;21008;-63
2024/01/22 00:02:15;;;;;;;8.43;3.85;;;;;;;-146.25;100.00;52607.47;2023874;29;36271;-63
2024/01/22 00:03:17;;;;;;;6.55;2.90;;;;;;;-146.25;100.00;52631.78;2024150;29;34227;-63
2024/01/22 00:04:19;;;;;;;8.02;3.10;;;;;;;-146.25;100.00;52615.56;2023717;29;31674;-63
2024/01/22 00:05:21;;;;;;;6.47;3.08;;;;;;;-146.25;100.00;52607.47;2024412;29;20985;-63
2024/01/22 00:06:23;;;;;;;6.65;2.92;;;;;;;-146.25;100.00;52603.41;2023929;29;34513;-62
2024/01/22 00:07:24;;;;;;;7.20;2.95;;;;;;;-146.25;100.00;52633.81;2023448;29;40460;-63
2024/01/22 00:08:26;;;;;;;6.47;2.60;;;;;;;-146.25;100.00;52577.03;2023655;29;32414;-63
2024/01/22 00:09:28;;;;;;;5.45;2.47;;;;;;;-146.25;100.00;52619.63;2023888;29;33785;-63
2024/01/22 00:10:30;;;;;;;6.60;2.78;;;;;;;-146.25;100.00;52613.53;2024446;29;20041;-63
2024/01/22 00:11:32;;;;;;;6.95;2.83;;;;;;;-146.25;100.00;52583.13;2023670;29;36479;-63
2024/01/22 00:12:34;;;;;;;6.78;2.47;;;;;;;-146.25;100.00;52605.44;2023601;29;35436;-63
2024/01/22 00:13:36;;;;;;;6.80;3.03;;;;;;;-146.25;100.00;52605.44;2022898;29;20048;-62
2024/01/22 00:14:38;;;;;;;10.35;3.05;;;;;;;-146.25;100.00;52611.50;2022844;29;37873;-62
2024/01/22 00:15:39;;;;;;;5.53;2.30;;;;;;;-146.25;100.00;52558.78;2023605;29;35353;-63
2024/01/22 00:16:41;;;;;;;6.95;2.67;;;;;;;-146.25;100.00;52597.31;2024053;29;20155;-63
2024/01/22 00:17:43;;;;;;;7.90;2.85;;;;;;;-146.25;100.00;52611.50;2024366;29;20062;-63
2024/01/22 00:18:46;;;;;;;5.57;2.63;;;;;;;-146.25;100.00;52599.34;2023704;29;37956;-63
2024/01/22 00:19:48;;;;;;;9.13;2.50;;;;;;;-146.25;100.00;52599.34;2023479;29;34484;-63
2024/01/22 00:20:50;;;;;;;7.32;2.35;;;;;;;-146.25;100.00;52617.59;2024386;29;20172;-63
2024/01/22 00:21:52;;;;;;;6.93;2.42;;;;;;;-146.25;100.00;52631.78;2023821;29;33136;-63
2024/01/22 00:22:54;;;;;;;6.05;2.13;;;;;;;-146.25;100.00;52611.50;2023301;29;34693;-62
2024/01/22 00:23:56;;;;;;;5.53;2.30;;;;;;;-146.25;100.00;52577.03;2024439;29;20045;-64
2024/01/22 00:24:58;;;;;;;6.60;2.67;;;;;;;-146.25;100.00;52579.06;2023938;29;37127;-62
2024/01/22 00:26:00;;;;;;;4.90;2.15;;;;;;;-146.25;100.00;52611.50;2023581;29;34889;-63
2024/01/22 00:27:01;;;;;;;6.53;2.30;;;;;;;-146.25;100.00;52613.53;2024235;29;20167;-63
2024/01/22 00:28:03;;;;;;;4.30;2.38;;;;;;;-146.25;100.00;52562.84;2023550;29;37069;-62
2024/01/22 00:29:06;;;;;;;5.63;2.60;;;;;;;-146.25;100.00;52623.69;2023562;29;35086;-62
2024/01/22 00:30:08;;;;;;;5.25;2.35;;;;;;;-146.25;100.00;52597.31;2023444;29;33070;-62
2024/01/22 00:31:10;;;;;;;3.58;2.00;;;;;;;-146.25;100.00;52611.50;2023672;29;40283;-62
2024/01/22 00:32:12;;;;;;;4.30;2.22;;;;;;;-146.25;100.00;52621.66;2023416;29;33390;-62
2024/01/22 00:33:14;;;;;;;4.05;2.10;;;;;;;-146.25;100.00;52593.25;2023291;29;34098;-62
2024/01/22 00:34:15;;;;;;;8.07;2.13;;;;;;;-146.25;100.00;52587.19;2023855;29;35755;-62
2024/01/22 00:35:18;;;;;;;6.20;2.20;;;;;;;-146.25;100.00;52583.13;2023937;29;20079;-62
2024/01/22 00:36:20;;;;;;;9.48;2.10;;;;;;;-146.25;100.00;52603.41;2023524;29;38764;-62
2024/01/22 00:37:21;;;;;;;8.65;2.17;;;;;;;-146.25;100.00;52581.09;2015217;29;32783;-61
2024/01/22 00:38:25;;;;;;;4.70;2.15;;;;;;;-146.25;100.00;52581.09;2014604;29;35404;-62
2024/01/22 00:39:27;;;;;;;5.47;2.15;;;;;;;-146.25;100.00;52587.19;2023144;29;37168;-62
2024/01/22 00:40:29;;;;;;;4.22;1.92;;;;;;;-146.25;100.00;52607.47;2023708;29;20080;-62
2024/01/22 00:41:31;;;;;;;5.32;2.10;;;;;;;-146.25;100.00;52573.00;2024102;29;36708;-62
2024/01/22 00:42:32;;;;;;;4.72;2.10;;;;;;;-146.25;100.00;52607.47;2023609;29;33462;-61
2024/01/22 00:43:40;;;;;;;6.72;2.53;;;;;;;-146.25;100.00;52595.28;2024029;29;20037;-62
2024/01/22 00:44:44;;;;;;;5.60;2.13;;;;;;;-146.25;100.00;52619.63;2023775;29;37628;-61
2024/01/22 00:45:45;;;;;;;4.95;2.05;;;;;;;-146.25;100.00;52585.16;2024052;29;20908;-63
2024/01/22 00:46:47;;;;;;;5.70;2.00;;;;;;;-146.25;100.00;52581.09;2023496;29;37689;-63
2024/01/22 00:47:49;;;;;;;6.45;2.00;;;;;;;-146.25;100.00;52589.22;2023931;29;33596;-63
2024/01/22 00:48:51;;;;;;;6.20;2.05;;;;;;;-146.25;100.00;52617.59;2024275;29;20046;-64
2024/01/22 00:49:52;;;;;;;4.53;1.83;;;;;;;-146.25;100.00;52603.41;2023209;29;37990;-64
2024/01/22 00:50:54;;;;;;;5.97;1.77;;;;;;;-146.25;100.00;52587.19;2023458;29;34367;-64
2024/01/22 00:51:56;;;;;;;4.40;2.00;;;;;;;-146.25;100.00;52607.47;2023264;29;35792;-64
2024/01/22 00:52:58;;;;;;;7.18;1.92;;;;;;;-146.25;100.00;52583.13;2023325;29;36783;-64
2024/01/22 00:54:04;;;;;;;6.35;2.20;;;;;;;-146.25;100.00;52589.22;2024147;29;20041;-64
2024/01/22 00:55:07;;;;;;;4.40;2.20;;;;;;;-146.25;100.00;52615.56;2023810;29;33600;-63
2024/01/22 00:56:09;;;;;;;3.92;1.73;;;;;;;-146.25;100.00;52585.16;2023085;29;34568;-64
2024/01/22 00:57:11;;;;;;;5.93;2.30;;;;;;;-146.25;100.00;52589.22;2023523;29;36972;-64
2024/01/22 00:58:13;;;;;;;6.00;2.00;;;;;;;-146.25;100.00;52583.13;2023204;29;34279;-63
2024/01/22 00:59:17;;;;;;;4.32;1.75;;;;;;;-146.25;100.00;52568.94;2024058;29;20679;-63
2024/01/22 01:00:21;;;;;;;5.13;2.10;;;;;;;-146.25;100.00;52579.06;2022906;29;34286;-63
2024/01/22 01:01:23;;;;;;;4.57;1.92;;;;;;;-146.25;100.00;52621.66;2023574;29;29461;-63
2024/01/22 01:02:25;;;;;;;4.28;2.10;;;;;;;-146.25;100.00;52575.00;2023484;29;34546;-63
2024/01/22 01:03:27;;;;;;;4.85;1.90;;;;;;;-146.25;100.00;52603.41;2015106;29;38911;-63
2024/01/22 01:04:29;;;;;;;3.22;1.67;;;;;;;-146.25;100.00;52593.25;2014843;29;37798;-63
2024/01/22 01:05:30;;;;;;;5.07;2.13;;;;;;;-146.25;100.00;52581.09;2024046;29;20907;-64
2024/01/22 01:06:32;;;;;;;6.57;2.30;;;;;;;-146.25;100.00;52615.56;2023273;29;35424;-64
2024/01/22 01:07:36;;;;;;;4.13;1.83;;;;;;;-146.25;100.00;52570.97;2023587;29;34092;-63
2024/01/22 01:08:40;;;;;;;4.25;2.00;;;;;;;-146.25;100.00;52611.50;2022946;29;35358;-64
2024/01/22 01:09:42;;;;;;;5.07;1.77;;;;;;;-146.25;100.00;52591.25;2024890;29;36868;-63
2024/01/22 01:10:44;;;;;;;4.00;1.70;;;;;;;-146.25;100.00;52617.59;2024593;29;20045;-63
2024/01/22 01:11:48;;;;;;;4.32;1.77;;;;;;;-146.25;100.00;52575.00;2024917;29;37655;-63
2024/01/22 01:12:50;;;;;;;3.53;2.03;;;;;;;-146.25;100.00;52573.00;2024693;29;32853;-64
2024/01/22 01:13:52;;;;;;;6.30;1.73;;;;;;;-146.25;100.00;52623.69;2025567;29;20077;-61
2024/01/22 01:14:54;;;;;;;3.45;1.58;;;;;;;-146.25;100.00;52601.38;2024246;29;36563;-64
2024/01/22 01:15:55;;;;;;;4.00;1.73;;;;;;;-146.25;100.00;52585.16;2025676;29;20068;-63
2024/01/22 01:16:58;;;;;;;5.70;2.05;;;;;;;-146.25;100.00;52641.94;2023899;29;34931;-64
2024/01/22 01:18:02;;;;;;;3.65;1.55;;;;;;;-146.25;100.00;52591.25;2024383;29;20029;-64
2024/01/22 01:19:05;;;;;;;4.65;1.98;;;;;;;-146.25;100.00;52633.81;2017849;29;20056;-63
2024/01/22 01:20:08;;;;;;;4.00;1.75;;;;;;;-146.25;100.00;52599.34;2025493;29;20221;-62
2024/01/22 01:21:10;;;;;;;4.13;1.88;;;;;;;-146.25;100.00;52591.25;2024256;29;39312;-62
2024/01/22 01:22:11;;;;;;;4.10;2.10;;;;;;;-146.25;100.00;52615.56;2024795;29;35493;-62
2024/01/22 01:23:13;;;;;;;6.72;2.10;;;;;;;-146.25;100.00;52621.66;2024642;29;35096;-63
2024/01/22 01:24:15;;;;;;;3.47;1.50;;;;;;;-146.25;100.00;52637.88;2024809;29;38159;-62
2024/01/22 01:25:17;;;;;;;3.42;1.75;;;;;;;-146.25;100.00;52599.34;2025187;29;20927;-62
2024/01/22 01:26:18;;;;;;;4.90;1.80;;;;;;;-146.25;100.00;52603.41;2024858;29;37434;-62
2024/01/22 01:27:20;;;;;;;3.30;1.80;;;;;;;-146.25;100.00;52619.63;2024594;29;35694;-62
2024/01/22 01:28:23;;;;;;;4.07;1.90;;;;;;;-146.25;100.00;52579.06;2024931;29;34087;-62
2024/01/22 01:29:24;;;;;;;6.32;1.73;;;;;;;-146.25;100.00;52593.25;2024108;29;34456;-62
2024/01/22 01:30:26;;;;;;;4.95;2.17;;;;;;;-146.25;100.00;52579.06;2024739;29;20053;-62
2024/01/22 01:31:29;;;;;;;3.90;1.83;;;;;;;-146.25;100.00;52589.22;2024592;29;38237;-62
2024/01/22 01:32:31;;;;;;;4.25;1.80;;;;;;;-146.25;100.00;52611.50;2024559;29;36643;-62
2024/01/22 01:33:34;;;;;;;7.53;2.10;;;;;;;-146.25;100.00;52625.72;2024526;29;31709;-62
2024/01/22 01:34:36;;;;;;;4.32;1.77;;;;;;;-146.25;100.00;52603.41;2024792;29;37189;-62
2024/01/22 01:35:38;;;;;;;4.78;1.98;;;;;;;-146.25;100.00;52550.69;2024273;29;20071;-62
2024/01/22 01:36:40;;;;;;;3.88;1.67;;;;;;;-146.25;100.00;52631.78;2024030;29;38120;-62
2024/01/22 01:37:42;;;;;;;3.03;1.65;;;;;;;-146.25;100.00;52613.53;2024319;29;38855;-62
2024/01/22 01:38:43;;;;;;;2.53;1.50;;;;;;;-146.25;100.00;52613.53;2024616;29;33630;-62
2024/01/22 01:39:45;;;;;;;4.30;1.60;;;;;;;-146.25;100.00;52566.91;2024158;29;36809;-62
2024/01/22 01:40:49;;;;;;;3.83;1.63;;;;;;;-146.25;100.00;52595.28;2023931;29;32357;-62
2024/01/22 01:41:53;;;;;;;3.45;1.60;;;;;;;-146.25;100.00;52621.66;2023963;29;35505;-62
2024/01/22 01:42:55;;;;;;;3.75;1.45;;;;;;;-146.25;100.00;52635.84;2024820;29;37608;-62
2024/01/22 01:43:57;;;;;;;4.10;1.73;;;;;;;-146.25;100.00;52587.19;2024827;29;20033;-62
2024/01/22 01:45:04;;;;;;;5.00;1.60;;;;;;;-146.25;100.00;52577.03;2024636;29;20041;-63
2024/01/22 01:46:06;;;;;;;3.25;1.60;;;;;;;-146.25;100.00;52611.50;2023828;29;33668;-62
2024/01/22 01:47:08;;;;;;;3.33;1.80;;;;;;;-146.25;100.00;52589.22;2024904;29;33984;-62
2024/01/22 01:48:11;;;;;;;6.63;1.40;;;;;;;-146.25;100.00;52609.50;2023609;29;38584;-62
2024/01/22 01:49:13;;;;;;;3.78;1.50;;;;;;;-146.25;100.00;52611.50;2016204;29;30161;-63
2024/01/22 01:50:17;;;;;;;3.42;1.42;;;;;;;-146.25;100.00;52599.34;2016023;29;37367;-63
2024/01/22 01:51:20;;;;;;;3.10;1.45;;;;;;;-146.25;100.00;52603.41;2024751;29;20942;-62
2024/01/22 01:52:22;;;;;;;4.20;1.60;;;;;;;-146.25;100.00;52583.13;2024191;29;38348;-62
2024/01/22 01:53:27;;;;;;;3.88;1.58;;;;;;;-146.25;100.00;52560.81;2023915;29;32859;-62
2024/01/22 01:54:29;;;;;;;2.80;1.33;;;;;;;-146.25;100.00;52591.25;2024104;29;32026;-63
2024/01/22 01:55:33;;;;;;;3.70;1.77;;;;;;;-146.25;100.00;52564.88;2024068;29;32406;-62
2024/01/22 01:56:37;;;;;;;2.95;1.48;;;;;;;-146.25;100.00;52645.97;2023914;29;35332;-63
2024/01/22 01:57:39;;;;;;;3.00;1.30;;;;;;;-146.25;100.00;52570.97;2024525;29;33581;-62
2024/01/22 01:58:46;;;;;;;3.65;1.50;;;;;;;-146.25;100.00;52570.97;2016310;29;20057;-62
2024/01/22 01:59:47;;;;;;;4.55;1.65;;;;;;;-146.25;100.00;52629.75;2016389;29;35871;-62
2024/01/22 02:00:54;;;;;;;3.13;1.60;;;;;;;-146.25;100.00;52581.09;2024080;29;35341;-62
2024/01/22 02:01:56;;;;;;;3.70;1.30;;;;;;;-146.25;100.00;52591.25;2024140;29;34528;-62
2024/01/22 02:02:57;;;;;;;2.25;1.35;;;;;;;-146.25;100.00;52619.63;2023849;29;30376;-62
2024/01/22 02:03:59;;;;;;;5.10;1.58;;;;;;;-146.25;100.00;52615.56;2024467;29;36556;-62
2024/01/22 02:05:06;;;;;;;3.45;1.27;;;;;;;-146.25;100.00;52625.72;2024452;29;35167;-62
2024/01/22 02:06:08;;;;;;;4.10;1.45;;;;;;;-146.25;100.00;52611.50;2016301;29;35547;-62
2024/01/22 02:07:10;;;;;;;3.47;1.50;;;;;;;-146.25;100.00;52583.13;2016253;29;37805;-63
2024/01/22 02:08:12;;;;;;;6.38;1.67;;;;;;;-146.25;100.00;52595.28;2023924;29;35300;-63
2024/01/22 02:09:16;;;;;;;3.60;1.65;;;;;;;-146.25;100.00;52609.50;2024156;29;33534;-63
2024/01/22 02:10:18;;;;;;;2.85;1.65;;;;;;;-146.25;100.00;52625.72;2024489;29;37921;-63
2024/01/22 02:11:21;;;;;;;3.42;1.60;;;;;;;-146.25;100.00;52603.41;2024557;29;20152;-62
2024/01/22 02:12:23;;;;;;;3.17;1.73;;;;;;;-146.25;100.00;52581.09;2023866;29;38563;-63
2024/01/22 02:13:28;;;;;;;3.10;1.50;;;;;;;-146.25;100.00;52575.00;2024044;29;20056;-62
2024/01/22 02:14:30;;;;;;;4.68;1.65;;;;;;;-146.25;100.00;52601.38;2023765;29;34909;-62
2024/01/22 02:15:32;;;;;;;2.85;1.60;;;;;;;-146.25;100.00;52605.44;2024171;29;37170;-62
2024/01/22 02:16:34;;;;;;;3.30;1.63;;;;;;;-146.25;100.00;52627.75;2024648;29;32465;-63
2024/01/22 02:17:36;;;;;;;4.68;1.80;;;;;;;-146.25;100.00;52617.59;2023623;29;36798;-62
2024/01/22 02:18:38;;;;;;;3.80;1.42;;;;;;;-146.25;100.00;52591.25;2023949;29;35760;-63
2024/01/22 02:19:40;;;;;;;3.90;1.60;;;;;;;-146.25;100.00;52601.38;2023795;29;33961;-62
2024/01/22 02:20:42;;;;;;;3.00;1.70;;;;;;;-146.25;100.00;52597.31;2024398;29;37070;-63
2024/01/22 02:21:43;;;;;;;4.70;1.35;;;;;;;-146.25;100.00;52558.78;2024518;29;32491;-62
2024/01/22 02:22:45;;;;;;;3.05;1.80;;;;;;;-146.25;100.00;52587.19;2024561;29;36735;-62
2024/01/22 02:23:47;;;;;;;4.22;1.42;;;;;;;-146.25;100.00;52579.06;2024252;29;38270;-62
2024/01/22 02:24:49;;;;;;;4.47;1.95;;;;;;;-146.25;100.00;52615.56;2024464;29;34549;-63
2024/01/22 02:25:53;;;;;;;4.78;1.50;;;;;;;-146.25;100.00;52597.31;2024033;29;35454;-62
2024/01/22 02:26:54;;;;;;;2.47;1.40;;;;;;;-146.25;100.00;52621.66;2024388;29;34557;-62
2024/01/22 02:27:56;;;;;;;3.15;1.40;;;;;;;-146.25;100.00;52599.34;2024128;29;39531;-62
2024/01/22 02:28:58;;;;;;;7.03;1.88;;;;;;;-146.25;100.00;52568.94;2024723;29;20189;-62
2024/01/22 02:30:00;;;;;;;2.55;1.40;;;;;;;-146.25;100.00;52589.22;2024038;29;36151;-62
2024/01/22 02:31:02;;;;;;;3.78;1.40;;;;;;;-146.25;100.00;52607.47;2015961;29;32463;-62
2024/01/22 02:32:04;;;;;;;3.13;1.80;;;;;;;-146.25;100.00;52635.84;2016001;29;31880;-62
2024/01/22 02:33:08;;;;;;;3.95;1.70;;;;;;;-146.25;100.00;52593.25;2024844;29;20077;-62
2024/01/22 02:34:11;;;;;;;2.55;1.27;;;;;;;-146.25;100.00;52556.75;2024394;29;20049;-62
2024/01/22 02:35:13;;;;;;;2.70;1.40;;;;;;;-146.25;100.00;52605.44;2024084;29;35400;-62
2024/01/22 02:36:15;;;;;;;5.63;1.45;;;;;;;-146.25;100.00;52562.84;2023843;29;34025;-62
2024/01/22 02:37:17;;;;;;;2.80;1.50;;;;;;;-146.25;100.00;52619.63;2024543;29;31845;-62
2024/01/22 02:38:21;;;;;;;3.95;1.60;;;;;;;-146.25;100.00;52558.78;2024371;29;36075;-62
2024/01/22 02:39:22;;;;;;;4.57;1.58;;;;;;;-146.25;100.00;52599.34;2024178;29;39371;-62
2024/01/22 02:40:24;;;;;;;4.13;1.65;;;;;;;-146.25;100.00;52609.50;2023867;29;33380;-62
2024/01/22 02:41:26;;;;;;;2.33;1.40;;;;;;;-146.25;100.00;52603.41;2024424;29;36332;-63
2024/01/22 02:42:28;;;;;;;3.63;1.55;;;;;;;-146.25;100.00;52607.47;2024107;29;31959;-62
2024/01/22 02:43:30;;;;;;;3.55;1.58;;;;;;;-146.25;100.00;52589.22;2023994;29;33997;-62
2024/01/22 02:44:34;;;;;;;2.28;1.23;;;;;;;-146.25;100.00;52566.91;2024178;29;37406;-63
2024/01/22 02:45:36;;;;;;;3.13;1.63;;;;;;;-146.25;100.00;52625.72;2024878;29;20156;-63
2024/01/22 02:46:38;;;;;;;4.47;1.48;;;;;;;-146.25;100.00;52597.31;2023950;29;34180;-62
2024/01/22 02:47:40;;;;;;;4.25;2.00;;;;;;;-146.25;100.00;52599.34;2024410;29;33073;-62
2024/01/22 02:48:41;;;;;;;2.50;1.50;;;;;;;-146.25;100.00;52573.00;2024154;29;35257;-62
2024/01/22 02:49:43;;;;;;;4.63;2.08;;;;;;;-146.25;100.00;52587.19;2023989;29;35083;-63
2024/01/22 02:50:45;;;;;;;3.17;1.70;;;;;;;-146.25;100.00;52613.53;2023516;29;36779;-62
2024/01/22 02:51:47;;;;;;;4.18;1.70;;;;;;;-146.25;100.00;52605.44;2024525;29;34478;-62
2024/01/22 02:52:49;;;;;;;3.63;1.80;;;;;;;-146.25;100.00;52601.38;2023901;29;37287;-62
2024/01/22 02:53:53;;;;;;;3.45;1.63;;;;;;;-146.25;100.00;52591.25;2024303;29;34612;-62
2024/01/22 02:54:55;;;;;;;4.50;1.58;;;;;;;-146.25;100.00;52623.69;2023718;29;34964;-62
2024/01/22 02:55:57;;;;;;;5.25;1.98;;;;;;;-146.25;100.00;52595.28;2024426;29;37329;-62
2024/01/22 02:56:58;;;;;;;2.90;1.75;;;;;;;-146.25;100.00;52566.91;2023836;29;33152;-62
2024/01/22 02:58:03;;;;;;;3.47;2.00;;;;;;;-146.25;100.00;52591.25;2024192;29;34957;-62
2024/01/22 02:59:05;;;;;;;4.30;2.00;;;;;;;-146.25;100.00;52552.72;2023306;29;36520;-62
2024/01/22 03:00:08;;;;;;;4.00;2.20;;;;;;;-146.25;100.00;52558.78;2024077;29;34094;-63
2024/01/22 03:01:10;;;;;;;3.35;1.80;;;;;;;-146.25;100.00;52603.41;2023882;29;31227;-62
2024/01/22 03:02:12;;;;;;;3.60;1.92;;;;;;;-146.25;100.00;52603.41;2024937;29;20053;-63
2024/01/22 03:03:15;;;;;;;6.30;2.20;;;;;;;-146.25;100.00;52623.69;2023026;29;34761;-62
2024/01/22 03:04:17;;;;;;;2.83;1.85;;;;;;;-146.25;100.00;52573.00;2023801;29;33541;-62
2024/01/22 03:05:19;;;;;;;4.50;2.10;;;;;;;-146.25;100.00;52619.63;2023934;29;33869;-62
2024/01/22 03:06:20;;;;;;;3.10;2.30;;;;;;;-146.25;100.00;52554.75;2024524;29;36143;-62
2024/01/22 03:07:22;;;;;;;4.65;2.20;;;;;;;-146.25;100.00;52581.09;2023982;29;33158;-62
2024/01/22 03:08:24;;;;;;;3.70;2.00;;;;;;;-146.25;100.00;52577.03;2024530;29;20649;-62
2024/01/22 03:09:26;;;;;;;6.70;2.38;;;;;;;-146.25;100.00;52605.44;2024466;29;20040;-62
2024/01/22 03:10:28;;;;;;;3.60;2.20;;;;;;;-146.25;100.00;52570.97;2024234;29;36032;-63
2024/01/22 03:11:30;;;;;;;3.20;1.95;;;;;;;-146.25;100.00;52637.88;2023964;29;34307;-63
2024/01/22 03:12:34;;;;;;;2.92;1.83;;;;;;;-146.25;100.00;52593.25;2024428;29;34836;-62
2024/01/22 03:13:36;;;;;;;3.90;2.25;;;;;;;-146.25;100.00;52609.50;2023479;29;37892;-62
2024/01/22 03:14:37;;;;;;;3.13;2.40;;;;;;;-146.25;100.00;52597.31;2024325;29;33218;-62
2024/01/22 03:15:39;;;;;;;4.38;2.70;;;;;;;-146.25;100.00;52597.31;2023802;29;33553;-62
2024/01/22 03:16:43;;;;;;;4.00;2.40;;;;;;;-146.25;100.00;52607.47;2024766;29;20045;-62
2024/01/22 03:17:45;;;;;;;8.00;2.42;;;;;;;-146.25;100.00;52599.34;2024710;29;20872;-62
2024/01/22 03:18:47;;;;;;;6.85;2.30;;;;;;;-146.25;100.00;52623.69;2024212;29;37714;-62
2024/01/22 03:19:49;;;;;;;5.32;2.08;;;;;;;-146.25;100.00;52556.75;2023857;29;29224;-62
2024/01/22 03:20:55;;;;;;;4.70;2.22;;;;;;;-146.25;100.00;52579.06;2025457;29;20049;-62
2024/01/22 03:21:57;;;;;;;3.90;1.83;;;;;;;-146.25;100.00;52573.00;2023814;29;37666;-63
2024/01/22 03:22:59;;;;;;;3.15;2.00;;;;;;;-146.25;100.00;52585.16;2024512;29;34576;-62
2024/01/22 03:24:01;;;;;;;3.88;1.95;;;;;;;-146.25;100.00;52619.63;2024640;29;20099;-63
2024/01/22 03:25:03;;;;;;;6.03;2.20;;;;;;;-146.25;100.00;52589.22;2023979;29;37570;-63
2024/01/22 03:26:04;;;;;;;5.07;1.75;;;;;;;-146.25;100.00;52583.13;2023727;29;35837;-62
2024/01/22 03:27:06;;;;;;;4.90;2.30;;;;;;;-146.25;100.00;52611.50;2024680;29;22041;-62
2024/01/22 03:28:08;;;;;;;3.17;2.40;;;;;;;-146.25;100.00;52595.28;2023290;29;37466;-62
2024/01/22 03:29:11;;;;;;;4.40;2.20;;;;;;;-146.25;100.00;52615.56;2024474;29;20088;-62
2024/01/22 03:30:13;;;;;;;4.80;2.20;;;;;;;-146.25;100.00;52595.28;2023267;29;34863;-62
2024/01/22 03:31:25;;;;;;;4.63;2.50;;;;;;;-146.25;100.00;52593.25;2023353;29;34698;-62
2024/01/22 03:32:27;;;;;;;3.85;2.35;;;;;;;-146.25;100.00;52587.19;2024640;29;20045;-62
2024/01/22 03:33:29;;;;;;;5.53;2.20;;;;;;;-146.25;100.00;52607.47;2023940;29;34807;-62
2024/01/22 03:34:31;;;;;;;4.28;2.58;;;;;;;-146.25;100.00;52583.13;2023894;29;37031;-63
2024/01/22 03:35:32;;;;;;;6.13;2.90;;;;;;;-146.25;100.00;52564.88;2024175;29;35421;-62
2024/01/22 03:36:36;;;;;;;6.43;2.60;;;;;;;-146.25;100.00;52631.78;2022593;29;38393;-62
2024/01/22 03:37:40;;;;;;;2.90;2.60;;;;;;;-146.25;100.00;52573.00;2023233;29;38675;-63
2024/01/22 03:38:43;;;;;;;2.95;2.25;;;;;;;-146.25;100.00;52581.09;2023689;29;20041;-64
2024/01/22 03:39:44;;;;;;;4.60;2.47;;;;;;;-146.25;100.00;52570.97;2022954;29;34022;-64
2024/01/22 03:40:48;;;;;;;4.25;2.67;;;;;;;-146.25;100.00;52619.63;2015758;29;38621;-64
2024/01/22 03:41:50;;;;;;;3.92;2.47;;;;;;;-146.25;100.00;52603.41;2024015;29;32346;-62
2024/01/22 03:42:52;;;;;;;2.47;2.22;;;;;;;-146.25;100.00;52597.31;2024465;29;20804;-62
2024/01/22 03:43:54;;;;;;;4.35;2.78;;;;;;;-146.25;100.00;52573.00;2023404;29;34471;-62
2024/01/22 03:44:56;;;;;;;3.88;2.33;;;;;;;-146.25;100.00;52585.16;2023728;29;35631;-62
2024/01/22 03:45:57;;;;;;;5.82;2.30;;;;;;;-146.25;100.00;52544.59;2023988;29;33616;-64
2024/01/22 03:46:59;;;;;;;5.65;2.28;;;;;;;-146.25;100.00;52570.97;2023523;29;35294;-64
2024/01/22 03:48:01;;;;;;;3.38;2.60;;;;;;;-146.25;100.00;52564.88;2024143;29;31963;-64
2024/01/22 03:49:03;;;;;;;7.82;2.40;;;;;;;-146.25;100.00;52591.25;2023551;29;34398;-63
2024/01/22 03:50:06;;;;;;;3.55;2.25;;;;;;;-146.25;100.00;52597.31;2023673;29;35623;-64
2024/01/22 03:51:08;;;;;;;4.63;2.55;;;;;;;-146.25;100.00;52603.41;2024125;29;20045;-64
2024/01/22 03:52:10;;;;;;;5.95;2.15;;;;;;;-146.25;100.00;52593.25;2024522;29;20044;-64
2024/01/22 03:53:14;;;;;;;3.90;2.28;;;;;;;-146.25;100.00;52595.28;2023473;29;38018;-63
2024/01/22 03:54:16;;;;;;;4.50;2.42;;;;;;;-146.25;100.00;52579.06;2024610;29;20045;-63
2024/01/22 03:55:18;;;;;;;4.15;2.30;;;;;;;-146.25;100.00;52577.03;2023581;29;36633;-63
2024/01/22 03:56:21;;;;;;;4.32;2.00;;;;;;;-146.25;100.00;52587.19;2023911;29;38323;-64
2024/01/22 03:57:25;;;;;;;4.00;2.28;;;;;;;-146.25;100.00;52581.09;2024135;29;20140;-63
2024/01/22 03:58:27;;;;;;;4.15;2.30;;;;;;;-146.25;100.00;52585.16;2023713;29;36286;-64
2024/01/22 03:59:28;;;;;;;3.78;2.10;;;;;;;-146.25;100.00;52615.56;2024239;29;20180;-63
2024/01/22 04:00:30;;;;;;;3.78;2.10;;;;;;;-146.25;100.00;52591.25;2023786;29;36401;-63
2024/01/22 04:01:32;;;;;;;4.03;2.20;;;;;;;-146.25;100.00;52609.50;2023694;29;34089;-64
2024/01/22 04:02:34;;;;;;;3.00;2.10;;;;;;;-146.25;100.00;52587.19;2024489;29;20045;-63
2024/01/22 04:03:36;;;;;;;3.60;2.10;;;;;;;-146.25;100.00;52599.34;2023637;29;37393;-63
2024/01/22 04:04:41;;;;;;;3.25;2.20;;;;;;;-146.25;100.00;52591.25;2024016;29;33182;-63
2024/01/22 04:05:43;;;;;;;3.38;2.20;;;;;;;-146.25;100.00;52589.22;2023381;29;30771;-63
2024/01/22 04:06:46;;;;;;;2.75;2.30;;;;;;;-146.25;100.00;52599.34;2023735;29;39220;-63
2024/01/22 04:07:48;;;;;;;4.10;2.40;;;;;;;-146.25;100.00;52573.00;2023935;29;33398;-63
2024/01/22 04:08:50;;;;;;;7.25;2.20;;;;;;;-146.25;100.00;52611.50;2023888;29;33555;-63
2024/01/22 04:09:52;;;;;;;3.53;2.00;;;;;;;-146.25;100.00;52564.88;2023430;29;33459;-63
2024/01/22 04:10:54;;;;;;;4.68;2.13;;;;;;;-146.25;100.00;52599.34;2023715;29;35333;-63
2024/01/22 04:11:55;;;;;;;3.28;2.10;;;;;;;-146.25;100.00;52564.88;2023312;29;33636;-63
2024/01/22 04:12:59;;;;;;;4.45;2.45;;;;;;;-146.25;100.00;52552.72;2023928;29;35186;-64
2024/01/22 04:14:03;;;;;;;3.70;2.25;;;;;;;-146.25;100.00;52564.88;2023118;29;35020;-63
2024/01/22 04:15:05;;;;;;;6.68;2.10;;;;;;;-146.25;100.00;52597.31;2024446;29;20037;-63
2024/01/22 04:16:15;;;;;;;4.68;2.13;;;;;;;-146.25;100.00;52583.13;2023094;29;35961;-63
2024/01/22 04:17:17;;;;;;;3.97;2.00;;;;;;;-146.25;100.00;52583.13;2022339;29;28370;-64
2024/01/22 04:18:19;;;;;;;2.55;2.00;;;;;;;-146.25;100.00;52597.31;2016202;29;27101;-64
2024/01/22 04:19:21;;;;;;;2.78;1.90;;;;;;;-146.25;100.00;52579.06;2023865;29;36218;-63
2024/01/22 04:20:23;;;;;;;2.33;1.98;;;;;;;-146.25;100.00;52583.13;2024108;29;20041;-63
2024/01/22 04:21:24;;;;;;;4.47;2.03;;;;;;;-146.25;100.00;52585.16;2023477;29;35383;-63
2024/01/22 04:22:26;;;;;;;2.50;2.17;;;;;;;-146.25;100.00;52603.41;2015146;29;35762;-63
2024/01/22 04:23:30;;;;;;;3.70;2.08;;;;;;;-146.25;100.00;52601.38;2015704;29;30713;-63
2024/01/22 04:24:34;;;;;;;3.20;1.50;;;;;;;-146.25;100.00;52605.44;2007693;29;34808;-64
2024/01/22 04:25:38;;;;;;;4.10;2.13;;;;;;;-146.25;100.00;52575.00;2016586;29;20038;-63
2024/01/22 04:26:40;;;;;;;2.50;2.10;;;;;;;-146.25;100.00;52568.94;2015339;29;34388;-63
2024/01/22 04:27:42;;;;;;;5.78;2.47;;;;;;;-146.25;100.00;52629.75;2016066;29;34255;-63
2024/01/22 04:28:44;;;;;;;6.53;1.98;;;;;;;-146.25;100.00;52583.13;2015655;29;33371;-63
2024/01/22 04:29:48;;;;;;;3.88;1.83;;;;;;;-146.25;100.00;52599.34;2016002;29;37677;-63
2024/01/22 04:30:50;;;;;;;4.03;2.40;;;;;;;-146.25;100.00;52607.47;2015993;29;20041;-63
2024/01/22 04:31:52;;;;;;;3.22;1.67;;;;;;;-146.25;100.00;52546.63;2016003;29;34944;-63
2024/01/22 04:32:54;;;;;;;2.88;1.70;;;;;;;-146.25;100.00;52591.25;2015630;29;34112;-64
2024/01/22 04:33:56;;;;;;;2.65;1.92;;;;;;;-146.25;100.00;52575.00;2015766;29;34213;-63
2024/01/22 04:34:58;;;;;;;3.03;1.80;;;;;;;-146.25;100.00;52587.19;2015032;29;35584;-63
2024/01/22 04:36:00;;;;;;;3.25;1.80;;;;;;;-146.25;100.00;52581.09;2015152;29;34370;-63
2024/01/22 04:37:02;;;;;;;2.72;1.45;;;;;;;-146.25;100.00;52581.09;2015870;29;35398;-63
2024/01/22 04:38:04;;;;;;;2.72;1.98;;;;;;;-146.25;100.00;52595.28;2016270;29;33486;-64
2024/01/22 04:39:06;;;;;;;6.45;1.83;;;;;;;-146.25;100.00;52573.00;2014942;29;33250;-63
2024/01/22 04:40:10;;;;;;;2.80;1.48;;;;;;;-146.25;100.00;52591.25;2016006;29;36010;-63
2024/01/22 04:41:12;;;;;;;4.13;1.90;;;;;;;-146.25;100.00;52581.09;2016234;29;20050;-63
2024/01/22 04:42:20;;;;;;;3.65;1.55;;;;;;;-146.25;100.00;52599.34;2015982;29;34730;-63
2024/01/22 04:43:22;;;;;;;3.55;1.55;;;;;;;-146.25;100.00;52603.41;2017824;29;20057;-63